createdAt,value
2022-09-13T00:02:36.722Z,84.80
2022-09-13T00:06:50.419Z,85.50
2022-09-13T00:11:06.214Z,85.70
2022-09-13T00:15:20.463Z,85.80
2022-09-13T00:19:34.527Z,85.90
2022-09-13T00:23:50.070Z,85.90
2022-09-13T00:28:05.942Z,86.20
2022-09-13T00:32:20.087Z,86.60
2022-09-13T00:36:33.915Z,86.30
2022-09-13T00:40:47.745Z,86.20
2022-09-13T00:45:15.473Z,86.60
2022-09-13T00:49:35.383Z,86.90
2022-09-13T00:53:53.713Z,87.00
2022-09-13T00:58:17.663Z,87.10
2022-09-13T01:02:33.311Z,87.20
2022-09-13T01:06:47.534Z,87.20
2022-09-13T01:11:04.654Z,87.50
2022-09-13T01:15:18.396Z,88.00
2022-09-13T01:19:33.585Z,88.30
2022-09-13T01:24:16.694Z,88.40
2022-09-13T01:29:05.837Z,88.40
2022-09-13T01:33:53.385Z,88.60
2022-09-13T01:38:18.762Z,88.30
2022-09-13T01:42:49.272Z,88.30
2022-09-13T01:47:08.776Z,87.80
2022-09-13T01:51:30.418Z,87.60
2022-09-13T01:55:49.473Z,88.00
2022-09-13T02:00:07.736Z,88.80
2022-09-13T02:04:29.182Z,89.70
2022-09-13T02:08:47.599Z,89.50
2022-09-13T02:13:02.955Z,89.90
2022-09-13T02:17:21.818Z,90.10
2022-09-13T02:21:40.701Z,90.10
2022-09-13T02:25:58.374Z,90.20
2022-09-13T02:30:14.382Z,90.20
2022-09-13T02:34:32.494Z,90.10
2022-09-13T02:38:52.542Z,89.80
2022-09-13T02:43:13.634Z,89.50
2022-09-13T02:47:35.916Z,89.30
2022-09-13T02:51:56.742Z,88.90
2022-09-13T02:56:22.389Z,88.70
2022-09-13T03:00:37.901Z,88.70
2022-09-13T03:04:52.707Z,88.40
2022-09-13T03:09:07.680Z,88.10
2022-09-13T03:13:41.367Z,88.10
2022-09-13T03:18:10.448Z,88.10
2022-09-13T03:22:48.861Z,88.40
2022-09-13T03:27:14.815Z,88.50
2022-09-13T03:31:34.837Z,88.50
2022-09-13T03:35:56.051Z,88.60
2022-09-13T03:40:14.227Z,89.40
2022-09-13T03:44:30.927Z,89.90
2022-09-13T03:48:46.411Z,90.20
2022-09-13T03:53:05.642Z,90.30
2022-09-13T03:57:22.172Z,90.50
2022-09-13T04:01:36.114Z,90.50
2022-09-13T04:05:50.274Z,90.60
2022-09-13T04:10:08.757Z,90.60
2022-09-13T04:14:26.470Z,90.50
2022-09-13T04:18:40.163Z,90.30
2022-09-13T04:22:54.254Z,90.10
2022-09-13T04:27:09.364Z,90.10
2022-09-13T04:31:23.230Z,90.10
2022-09-13T04:35:37.383Z,90.50
2022-09-13T04:39:51.089Z,90.20
2022-09-13T04:44:06.448Z,90.30
2022-09-13T04:48:20.893Z,90.60
2022-09-13T04:52:34.851Z,90.30
2022-09-13T04:56:49.534Z,90.40
2022-09-13T05:01:05.836Z,90.50
2022-09-13T05:05:19.571Z,90.90
2022-09-13T05:09:33.317Z,90.70
2022-09-13T05:13:52.979Z,90.10
2022-09-13T05:18:08.141Z,89.60
2022-09-13T05:22:21.840Z,89.20
2022-09-13T05:26:35.575Z,90.00
2022-09-13T05:30:57.007Z,90.00
2022-09-13T05:35:12.095Z,86.80
2022-09-13T05:39:33.847Z,82.30
2022-09-13T05:43:57.727Z,79.00
2022-09-13T05:48:13.423Z,76.60
2022-09-13T05:52:28.818Z,73.20
2022-09-13T05:56:42.822Z,73.30
2022-09-13T06:00:57.198Z,71.50
2022-09-13T06:05:12.004Z,69.40
2022-09-13T06:09:27.196Z,68.30
2022-09-13T06:13:41.877Z,68.50
2022-09-13T06:17:55.768Z,69.30
2022-09-13T06:22:09.768Z,69.80
2022-09-13T06:26:27.245Z,69.70
2022-09-13T06:30:40.955Z,69.70
2022-09-13T06:34:54.702Z,70.40
2022-09-13T06:39:08.775Z,71.10
2022-09-13T06:43:23.964Z,71.90
2022-09-13T06:47:37.872Z,72.60
2022-09-13T06:51:51.616Z,73.90
2022-09-13T06:56:08.095Z,74.70
2022-09-13T07:00:23.275Z,75.90
2022-09-13T07:04:37.243Z,76.70
2022-09-13T07:08:52.506Z,77.40
2022-09-13T07:13:06.504Z,78.40
2022-09-13T07:17:21.652Z,79.30
2022-09-13T07:21:36.554Z,80.00
2022-09-13T07:25:56.020Z,80.70
2022-09-13T07:30:10.405Z,81.50
2022-09-13T07:34:26.799Z,82.20
2022-09-13T07:38:42.237Z,83.20
2022-09-13T07:42:56.193Z,83.90
2022-09-13T07:47:10.349Z,84.40
2022-09-13T07:51:26.901Z,84.30
2022-09-13T07:55:40.864Z,84.40
2022-09-13T07:59:55.385Z,84.70
2022-09-13T08:04:11.052Z,84.50
2022-09-13T08:08:26.193Z,83.30
2022-09-13T08:12:40.090Z,82.10
2022-09-13T08:16:56.783Z,81.00
2022-09-13T08:21:10.629Z,80.00
2022-09-13T08:25:27.694Z,79.80
2022-09-13T08:29:41.611Z,80.00
2022-09-13T08:33:56.280Z,80.10
2022-09-13T08:38:09.972Z,79.00
2022-09-13T08:42:49.371Z,77.20
2022-09-13T08:47:22.865Z,76.10
2022-09-13T08:51:42.872Z,75.30
2022-09-13T08:56:04.507Z,74.50
2022-09-13T09:00:23.066Z,72.60
2022-09-13T09:04:43.648Z,71.90
2022-09-13T09:09:03.631Z,72.20
2022-09-13T09:13:26.598Z,72.70
2022-09-13T09:17:49.588Z,71.10
2022-09-13T09:22:07.441Z,69.80
2022-09-13T09:26:23.948Z,69.10
2022-09-13T09:30:44.899Z,68.00
2022-09-13T09:35:12.794Z,66.40
2022-09-13T09:39:32.937Z,66.20
2022-09-13T09:43:53.639Z,66.30
2022-09-13T09:48:15.139Z,66.30
2022-09-13T09:52:40.158Z,63.80
2022-09-13T09:56:56.016Z,61.70
2022-09-13T10:01:20.893Z,58.40
2022-09-13T10:05:36.525Z,57.20
2022-09-13T10:10:00.408Z,56.30
2022-09-13T10:14:38.226Z,54.20
2022-09-13T10:18:51.987Z,53.10
2022-09-13T10:23:22.697Z,52.40
2022-09-13T10:27:42.781Z,51.60
2022-09-13T10:31:58.973Z,50.40
2022-09-13T10:36:29.612Z,48.00
2022-09-13T10:41:17.261Z,46.20
2022-09-13T10:45:42.900Z,44.70
2022-09-13T10:49:59.412Z,44.80
2022-09-13T10:54:21.844Z,45.60
2022-09-13T10:58:35.637Z,46.40
2022-09-13T11:03:07.185Z,47.00
2022-09-13T11:07:40.939Z,47.20
2022-09-13T11:12:03.755Z,47.40
2022-09-13T11:16:29.979Z,47.70
2022-09-13T11:20:52.607Z,47.80
2022-09-13T11:25:31.043Z,47.90
2022-09-13T11:30:05.968Z,47.20
2022-09-13T11:34:33.283Z,47.00
2022-09-13T11:39:03.924Z,45.70
2022-09-13T11:43:45.099Z,44.60
2022-09-13T11:48:31.661Z,44.70
2022-09-13T11:52:54.081Z,44.00
2022-09-13T11:57:14.473Z,43.90
2022-09-13T12:01:32.848Z,44.70
2022-09-13T12:05:49.356Z,45.00
2022-09-13T12:10:14.782Z,45.90
2022-09-13T12:14:37.091Z,46.90
2022-09-13T12:18:54.153Z,47.70
2022-09-13T12:23:18.488Z,47.90
2022-09-13T12:27:40.286Z,48.30
2022-09-13T12:32:00.152Z,48.40
2022-09-13T12:36:39.411Z,48.40
2022-09-13T12:41:05.725Z,48.30
2022-09-13T12:45:47.029Z,48.30
2022-09-13T12:55:46.738Z,48.40
2022-09-13T13:00:14.516Z,48.60
2022-09-13T13:04:31.700Z,49.00
2022-09-13T13:08:55.009Z,49.20
2022-09-13T13:13:19.206Z,49.50
2022-09-13T13:17:43.835Z,49.60
2022-09-13T13:21:57.816Z,49.60
2022-09-13T13:26:34.142Z,49.80
2022-09-13T13:30:56.375Z,50.10
2022-09-13T13:35:30.217Z,50.20
2022-09-13T13:39:45.384Z,50.20
2022-09-13T13:44:00.596Z,49.30
2022-09-13T13:48:16.260Z,49.00
2022-09-13T13:52:40.836Z,48.80
2022-09-13T13:56:54.711Z,48.10
2022-09-13T14:01:18.633Z,47.90
2022-09-13T14:05:41.021Z,48.00
2022-09-13T14:10:03.536Z,48.20
2022-09-13T14:14:33.848Z,47.80
2022-09-13T14:19:11.836Z,48.00
2022-09-13T14:23:25.491Z,48.10
2022-09-13T14:27:41.220Z,48.40
2022-09-13T14:32:01.456Z,48.60
2022-09-13T14:36:22.613Z,49.00
2022-09-13T14:40:37.777Z,49.00
2022-09-13T14:44:52.082Z,49.20
2022-09-13T14:49:11.051Z,49.20
2022-09-13T14:53:30.523Z,49.30
2022-09-13T14:57:49.573Z,49.20
2022-09-13T15:02:08.687Z,49.20
2022-09-13T15:06:25.184Z,49.20
2022-09-13T15:10:45.170Z,49.40
2022-09-13T15:15:22.813Z,49.50
2022-09-13T15:19:43.411Z,49.80
2022-09-13T15:23:57.170Z,50.10
2022-09-13T15:28:23.527Z,50.30
2022-09-13T15:32:43.468Z,50.50
2022-09-13T15:37:11.127Z,50.70
2022-09-13T15:41:29.380Z,50.80
2022-09-13T15:45:45.200Z,51.20
2022-09-13T15:49:59.390Z,51.50
2022-09-13T15:54:15.029Z,52.00
2022-09-13T15:58:28.991Z,52.30
2022-09-13T16:02:44.083Z,52.70
2022-09-13T16:06:57.847Z,53.00
2022-09-13T16:11:11.656Z,53.40
2022-09-13T16:15:25.529Z,53.80
2022-09-13T16:19:41.396Z,54.20
2022-09-13T16:23:55.146Z,54.70
2022-09-13T16:28:08.934Z,55.10
2022-09-13T16:32:23.009Z,55.50
2022-09-13T16:36:38.873Z,55.80
2022-09-13T16:40:53.641Z,56.20
2022-09-13T16:45:09.078Z,56.50
2022-09-13T16:49:22.868Z,56.80
2022-09-13T16:53:41.419Z,57.00
2022-09-13T16:57:55.692Z,57.20
2022-09-13T17:02:11.186Z,57.30
2022-09-13T17:06:26.754Z,58.30
2022-09-13T17:10:42.004Z,57.70
2022-09-13T17:14:57.562Z,58.10
2022-09-13T17:19:16.027Z,58.60
2022-09-13T17:23:29.843Z,59.20
2022-09-13T17:27:48.419Z,59.70
2022-09-13T17:32:03.918Z,60.50
2022-09-13T17:36:17.797Z,61.10
2022-09-13T17:40:32.882Z,61.50
2022-09-13T17:44:48.128Z,62.00
2022-09-13T17:49:01.887Z,62.30
2022-09-13T17:53:15.666Z,62.50
2022-09-13T17:57:29.519Z,62.90
2022-09-13T18:01:46.872Z,63.30
2022-09-13T18:06:02.154Z,63.70
2022-09-13T18:10:45.202Z,64.00
2022-09-13T18:14:52.507Z,64.40
2022-09-13T18:19:07.847Z,64.90
2022-09-13T18:23:21.790Z,65.50
2022-09-13T18:27:35.598Z,65.90
2022-09-13T18:31:49.441Z,66.40
2022-09-13T18:36:06.892Z,66.90
2022-09-13T18:40:20.661Z,67.40
2022-09-13T18:44:34.486Z,67.90
2022-09-13T18:48:49.627Z,68.40
2022-09-13T18:53:04.630Z,68.90
2022-09-13T18:57:18.344Z,69.30
2022-09-13T19:01:33.983Z,69.60
2022-09-13T19:05:47.846Z,69.90
2022-09-13T19:10:03.309Z,70.30
2022-09-13T19:14:18.921Z,70.70
2022-09-13T19:18:33.628Z,71.20
2022-09-13T19:22:47.420Z,71.50
2022-09-13T19:27:02.619Z,71.80
2022-09-13T19:31:17.084Z,72.40
2022-09-13T19:35:30.906Z,72.80
2022-09-13T19:39:45.635Z,73.00
2022-09-13T19:44:04.807Z,73.10
2022-09-13T19:48:38.097Z,73.60
2022-09-13T19:52:52.612Z,73.70
2022-09-13T19:57:07.732Z,74.10
2022-09-13T20:01:24.788Z,74.60
2022-09-13T20:05:38.933Z,75.20
2022-09-13T20:09:52.657Z,75.50
2022-09-13T20:14:07.455Z,75.70
2022-09-13T20:18:23.025Z,75.80
2022-09-13T20:22:36.868Z,76.00
2022-09-13T20:26:52.274Z,76.10
2022-09-13T20:31:06.415Z,76.10
2022-09-13T20:35:22.021Z,76.10
2022-09-13T20:39:35.900Z,76.60
2022-09-13T20:43:50.348Z,76.60
2022-09-13T20:48:04.405Z,76.60
2022-09-13T20:52:22.154Z,76.80
2022-09-13T20:56:36.804Z,77.20
2022-09-13T21:00:50.843Z,77.60
2022-09-13T21:05:04.881Z,77.90
2022-09-13T21:09:20.745Z,78.10
2022-09-13T21:13:35.436Z,78.50
2022-09-13T21:17:49.832Z,78.40
2022-09-13T21:22:04.137Z,78.60
2022-09-13T21:26:21.389Z,78.90
2022-09-13T21:30:35.370Z,79.10
2022-09-13T21:34:49.511Z,79.10
2022-09-13T21:39:03.439Z,79.20
2022-09-13T21:43:25.428Z,79.30
2022-09-13T21:47:39.800Z,79.40
2022-09-13T21:51:54.210Z,79.60
2022-09-13T21:56:10.277Z,79.70
2022-09-13T22:00:25.474Z,79.60
2022-09-13T22:04:39.841Z,79.20
2022-09-13T22:08:55.140Z,78.90
2022-09-13T22:13:09.023Z,78.80
2022-09-13T22:17:24.469Z,78.90
2022-09-13T22:21:41.310Z,79.00
2022-09-13T22:25:55.142Z,78.90
2022-09-13T22:30:09.782Z,78.90
2022-09-13T22:34:26.706Z,78.90
2022-09-13T22:38:41.726Z,79.00
2022-09-13T22:42:55.404Z,79.20
2022-09-13T22:47:09.223Z,80.10
2022-09-13T22:51:24.827Z,79.40
2022-09-13T22:55:38.540Z,79.60
2022-09-13T22:59:52.693Z,79.80
2022-09-13T23:04:07.167Z,80.00
2022-09-13T23:08:22.535Z,80.10
2022-09-13T23:12:36.802Z,80.40
2022-09-13T23:16:52.457Z,80.50
2022-09-13T23:21:06.434Z,80.60
2022-09-13T23:25:21.604Z,80.70
2022-09-13T23:29:35.638Z,80.90
2022-09-13T23:33:50.891Z,80.90
2022-09-13T23:38:06.227Z,81.00
2022-09-13T23:42:21.408Z,81.40
2022-09-13T23:46:35.466Z,81.70
2022-09-13T23:50:49.545Z,81.90
2022-09-13T23:55:04.167Z,82.10
2022-09-13T23:59:19.470Z,82.60
